createdAt,value
2024-03-02T00:00:04.000Z,3.1624
2024-03-02T00:01:04.000Z,4.1064
2024-03-02T00:02:05.000Z,4.2951999999999995
2024-03-02T00:03:05.000Z,2.5488
2024-03-02T00:04:05.000Z,4.1064
2024-03-02T00:05:06.000Z,2.832
2024-03-02T00:06:06.000Z,5.0504
2024-03-02T00:07:06.000Z,4.2951999999999995
2024-03-02T00:08:07.000Z,3.3983999999999996
2024-03-02T00:09:07.000Z,3.6344
2024-03-02T00:10:07.000Z,2.8792
2024-03-02T00:11:07.000Z,2.6431999999999998
2024-03-02T00:12:08.000Z,3.3040000000000003
2024-03-02T00:13:08.000Z,2.4544
2024-03-02T00:14:08.000Z,3.3983999999999996
2024-03-02T00:15:09.000Z,3.2567999999999997
2024-03-02T00:16:09.000Z,4.1064
2024-03-02T00:17:09.000Z,2.9263999999999997
2024-03-02T00:18:09.000Z,3.1152
2024-03-02T00:19:10.000Z,3.1624
2024-03-02T00:20:10.000Z,4.153599999999999
2024-03-02T00:21:10.000Z,3.6816
2024-03-02T00:22:11.000Z,4.247999999999999
2024-03-02T00:23:11.000Z,3.7759999999999994
2024-03-02T00:24:11.000Z,2.9736
2024-03-02T00:25:11.000Z,3.7759999999999994
2024-03-02T00:26:12.000Z,3.54
2024-03-02T00:27:12.000Z,3.0679999999999996
2024-03-02T00:28:12.000Z,3.5871999999999993
2024-03-02T00:29:13.000Z,3.54
2024-03-02T00:30:13.000Z,3.0208
2024-03-02T00:31:13.000Z,4.012
2024-03-02T00:32:14.000Z,3.3983999999999996
2024-03-02T00:33:14.000Z,3.7287999999999992
2024-03-02T00:34:14.000Z,3.1152
2024-03-02T00:35:15.000Z,3.9647999999999994
2024-03-02T00:36:15.000Z,3.6816
2024-03-02T00:37:15.000Z,4.3424
2024-03-02T00:38:16.000Z,2.6903999999999995
2024-03-02T00:39:16.000Z,3.1152
2024-03-02T00:40:16.000Z,1.9351999999999998
2024-03-02T00:41:17.000Z,3.2567999999999997
2024-03-02T00:42:17.000Z,2.4072
2024-03-02T00:43:17.000Z,3.3511999999999995
2024-03-02T00:44:18.000Z,2.7847999999999997
2024-03-02T00:45:18.000Z,3.4928
2024-03-02T00:46:18.000Z,3.6816
2024-03-02T00:47:19.000Z,2.0296
2024-03-02T00:48:19.000Z,2.0767999999999995
2024-03-02T00:49:19.000Z,3.5871999999999993
2024-03-02T00:50:19.000Z,2.2655999999999996
2024-03-02T00:51:20.000Z,3.0679999999999996
2024-03-02T00:52:20.000Z,2.9263999999999997
2024-03-02T00:53:20.000Z,2.8792
2024-03-02T00:54:21.000Z,2.5959999999999996
2024-03-02T00:55:21.000Z,2.4072
2024-03-02T00:56:21.000Z,2.1712
2024-03-02T00:57:22.000Z,3.1152
2024-03-02T00:58:22.000Z,1.9823999999999997
2024-03-02T00:59:22.000Z,2.8792
2024-03-02T01:00:22.000Z,3.1152
2024-03-02T01:01:23.000Z,3.4928
2024-03-02T01:02:23.000Z,4.7672
2024-03-02T01:03:23.000Z,3.4928
2024-03-02T01:04:24.000Z,3.4455999999999993
2024-03-02T01:05:24.000Z,2.5015999999999994
2024-03-02T01:06:24.000Z,2.4544
2024-03-02T01:07:25.000Z,3.3983999999999996
2024-03-02T01:08:25.000Z,2.6431999999999998
2024-03-02T01:09:25.000Z,3.4455999999999993
2024-03-02T01:10:25.000Z,3.0208
2024-03-02T01:11:26.000Z,3.5871999999999993
2024-03-02T01:12:26.000Z,2.9263999999999997
2024-03-02T01:13:26.000Z,2.0767999999999995
2024-03-02T01:14:26.000Z,2.7847999999999997
2024-03-02T01:15:27.000Z,3.4928
2024-03-02T01:16:27.000Z,2.2655999999999996
2024-03-02T01:17:27.000Z,2.2184
2024-03-02T01:18:28.000Z,3.4928
2024-03-02T01:19:28.000Z,2.5015999999999994
2024-03-02T01:20:28.000Z,2.9736
2024-03-02T01:21:29.000Z,2.7847999999999997
2024-03-02T01:22:29.000Z,2.4544
2024-03-02T01:23:29.000Z,2.832
2024-03-02T01:24:29.000Z,3.1152
2024-03-02T01:25:30.000Z,3.54
2024-03-02T01:26:30.000Z,2.2184
2024-03-02T01:27:30.000Z,2.6903999999999995
2024-03-02T01:28:31.000Z,2.5488
2024-03-02T01:29:31.000Z,4.3424
2024-03-02T01:30:31.000Z,2.6431999999999998
2024-03-02T01:31:32.000Z,3.2095999999999996
2024-03-02T01:32:32.000Z,4.4368
2024-03-02T01:33:32.000Z,3.0679999999999996
2024-03-02T01:34:33.000Z,3.3511999999999995
2024-03-02T01:35:33.000Z,3.7759999999999994
2024-03-02T01:36:33.000Z,3.7759999999999994
2024-03-02T01:37:34.000Z,3.8703999999999996
2024-03-02T01:38:34.000Z,3.6816
2024-03-02T01:39:34.000Z,3.6816
2024-03-02T01:40:35.000Z,3.7759999999999994
2024-03-02T01:41:35.000Z,4.012
2024-03-02T01:42:35.000Z,3.3040000000000003
2024-03-02T01:43:36.000Z,3.0208
2024-03-02T01:44:36.000Z,3.5871999999999993
2024-03-02T01:45:36.000Z,3.6344
2024-03-02T01:46:37.000Z,3.0679999999999996
2024-03-02T01:47:37.000Z,2.9263999999999997
2024-03-02T01:48:37.000Z,3.3983999999999996
2024-03-02T01:49:37.000Z,3.7287999999999992
2024-03-02T01:50:38.000Z,2.7847999999999997
2024-03-02T01:51:38.000Z,3.0208
2024-03-02T01:52:38.000Z,3.4455999999999993
2024-03-02T01:53:39.000Z,2.9263999999999997
2024-03-02T01:54:39.000Z,2.5959999999999996
2024-03-02T01:55:40.000Z,2.7847999999999997
2024-03-02T01:56:40.000Z,2.6903999999999995
2024-03-02T01:57:40.000Z,2.5488
2024-03-02T01:58:40.000Z,3.2567999999999997
2024-03-02T01:59:41.000Z,3.1624
2024-03-02T02:00:41.000Z,2.7847999999999997
2024-03-02T02:01:41.000Z,2.0296
2024-03-02T02:02:42.000Z,2.4544
2024-03-02T02:03:42.000Z,2.7847999999999997
2024-03-02T02:04:42.000Z,2.2184
2024-03-02T02:05:43.000Z,2.5488
2024-03-02T02:06:43.000Z,1.6991999999999998
2024-03-02T02:07:43.000Z,2.1712
2024-03-02T02:08:44.000Z,0.9911999999999999
2024-03-02T02:09:44.000Z,0.9439999999999998
2024-03-02T02:10:44.000Z,2.5015999999999994
2024-03-02T02:11:44.000Z,2.832
2024-03-02T02:12:45.000Z,2.0767999999999995
2024-03-02T02:13:45.000Z,1.3215999999999999
2024-03-02T02:14:45.000Z,2.5959999999999996
2024-03-02T02:15:46.000Z,2.4072
2024-03-02T02:16:46.000Z,2.7847999999999997
2024-03-02T02:17:46.000Z,2.2655999999999996
2024-03-02T02:18:46.000Z,1.18
2024-03-02T02:19:47.000Z,2.0767999999999995
2024-03-02T02:20:47.000Z,1.9351999999999998
2024-03-02T02:21:47.000Z,2.0767999999999995
2024-03-02T02:22:48.000Z,1.0856
2024-03-02T02:23:48.000Z,1.0383999999999998
2024-03-02T02:24:48.000Z,0.0
2024-03-02T02:25:48.000Z,0.33039999999999997
2024-03-02T02:26:49.000Z,0.5191999999999999
2024-03-02T02:27:49.000Z,2.2655999999999996
2024-03-02T02:28:49.000Z,1.8879999999999997
2024-03-02T02:29:50.000Z,1.7464
2024-03-02T02:30:50.000Z,1.6520000000000001
2024-03-02T02:31:50.000Z,2.1239999999999997
2024-03-02T02:32:51.000Z,1.7464
2024-03-02T02:33:51.000Z,1.7935999999999996
2024-03-02T02:34:51.000Z,1.7464
2024-03-02T02:35:52.000Z,2.0767999999999995
2024-03-02T02:36:52.000Z,1.3687999999999998
2024-03-02T02:37:52.000Z,0.0944
2024-03-02T02:38:53.000Z,1.3215999999999999
2024-03-02T02:39:53.000Z,1.3215999999999999
2024-03-02T02:40:53.000Z,1.8879999999999997
2024-03-02T02:41:53.000Z,1.6991999999999998
2024-03-02T02:42:54.000Z,0.14159999999999998
2024-03-02T02:43:54.000Z,1.2744
2024-03-02T02:44:54.000Z,1.5576
2024-03-02T02:45:55.000Z,1.5576
2024-03-02T02:46:55.000Z,1.1327999999999998
2024-03-02T02:47:55.000Z,0.0
2024-03-02T02:48:55.000Z,0.0
2024-03-02T02:49:56.000Z,0.0
2024-03-02T02:50:56.000Z,1.2272
2024-03-02T02:51:56.000Z,1.416
2024-03-02T02:52:57.000Z,1.6991999999999998
2024-03-02T02:53:57.000Z,1.0383999999999998
2024-03-02T02:54:58.000Z,0.3776
2024-03-02T02:55:58.000Z,0.0472
2024-03-02T02:56:58.000Z,0.42479999999999996
2024-03-02T02:57:59.000Z,0.28319999999999995
2024-03-02T02:58:59.000Z,0.0
2024-03-02T02:59:59.000Z,0.0
2024-03-02T03:00:59.000Z,0.0
2024-03-02T03:02:00.000Z,0.0
2024-03-02T03:03:00.000Z,0.0944
2024-03-02T03:04:00.000Z,1.7464
2024-03-02T03:05:01.000Z,2.5959999999999996
2024-03-02T03:06:01.000Z,1.8408
2024-03-02T03:07:01.000Z,1.8879999999999997
2024-03-02T03:08:02.000Z,2.3127999999999997
2024-03-02T03:09:02.000Z,1.8879999999999997
2024-03-02T03:10:03.000Z,2.5488
2024-03-02T03:11:03.000Z,1.9351999999999998
2024-03-02T03:12:03.000Z,3.1152
2024-03-02T03:13:04.000Z,2.5959999999999996
2024-03-02T03:14:04.000Z,2.36
2024-03-02T03:15:04.000Z,2.0296
2024-03-02T03:16:04.000Z,2.5488
2024-03-02T03:17:05.000Z,2.5015999999999994
2024-03-02T03:18:05.000Z,2.5959999999999996
2024-03-02T03:19:05.000Z,2.9263999999999997
2024-03-02T03:20:06.000Z,2.6431999999999998
2024-03-02T03:21:06.000Z,2.3127999999999997
2024-03-02T03:22:06.000Z,2.36
2024-03-02T03:23:07.000Z,2.36
2024-03-02T03:24:07.000Z,1.8408
2024-03-02T03:25:07.000Z,1.416
2024-03-02T03:26:08.000Z,1.3215999999999999
2024-03-02T03:27:08.000Z,0.42479999999999996
2024-03-02T03:28:08.000Z,1.7935999999999996
2024-03-02T03:29:09.000Z,2.0767999999999995
2024-03-02T03:30:09.000Z,2.0296
2024-03-02T03:31:09.000Z,1.2744
2024-03-02T03:32:10.000Z,2.4072
2024-03-02T03:33:10.000Z,1.5104
2024-03-02T03:34:10.000Z,1.0856
2024-03-02T03:35:11.000Z,1.6991999999999998
2024-03-02T03:36:11.000Z,3.0208
2024-03-02T03:37:11.000Z,2.6903999999999995
2024-03-02T03:38:12.000Z,3.1624
2024-03-02T03:39:12.000Z,3.3983999999999996
2024-03-02T03:40:13.000Z,2.9736
2024-03-02T03:41:13.000Z,2.5488
2024-03-02T03:42:13.000Z,2.4072
2024-03-02T03:43:14.000Z,1.3215999999999999
2024-03-02T03:44:14.000Z,1.5576
2024-03-02T03:45:15.000Z,2.5015999999999994
2024-03-02T03:46:15.000Z,0.0
2024-03-02T03:47:15.000Z,2.3127999999999997
2024-03-02T03:48:16.000Z,2.7375999999999996
2024-03-02T03:49:16.000Z,3.0208
2024-03-02T03:50:17.000Z,2.2184
2024-03-02T03:51:17.000Z,1.3215999999999999
2024-03-02T03:52:17.000Z,2.1712
2024-03-02T03:53:18.000Z,1.3687999999999998
2024-03-02T03:54:18.000Z,1.0383999999999998
2024-03-02T03:55:19.000Z,1.8879999999999997
2024-03-02T03:56:19.000Z,1.9351999999999998
2024-03-02T03:57:19.000Z,0.5191999999999999
2024-03-02T03:58:20.000Z,0.6136
2024-03-02T03:59:20.000Z,0.33039999999999997
2024-03-02T04:00:20.000Z,0.28319999999999995
2024-03-02T04:01:21.000Z,0.0
2024-03-02T04:02:21.000Z,1.2272
2024-03-02T04:03:22.000Z,2.832
2024-03-02T04:04:22.000Z,1.2744
2024-03-02T04:05:23.000Z,0.0472
2024-03-02T04:06:23.000Z,0.0
2024-03-02T04:07:24.000Z,0.8967999999999998
2024-03-02T04:08:24.000Z,1.18
2024-03-02T04:09:24.000Z,1.9351999999999998
2024-03-02T04:10:25.000Z,2.0767999999999995
2024-03-02T04:11:25.000Z,2.4544
2024-03-02T04:12:25.000Z,3.5871999999999993
2024-03-02T04:13:26.000Z,2.832
2024-03-02T04:14:26.000Z,2.7847999999999997
2024-03-02T04:15:27.000Z,2.5015999999999994
2024-03-02T04:16:27.000Z,1.9823999999999997
2024-03-02T04:17:28.000Z,3.1152
2024-03-02T04:18:28.000Z,2.1712
2024-03-02T04:19:28.000Z,2.1239999999999997
2024-03-02T04:20:29.000Z,2.4072
2024-03-02T04:21:29.000Z,2.5015999999999994
2024-03-02T04:22:30.000Z,4.1064
2024-03-02T04:23:30.000Z,1.7935999999999996
2024-03-02T04:24:30.000Z,2.2184
2024-03-02T04:25:31.000Z,2.1712
2024-03-02T04:26:31.000Z,1.6991999999999998
2024-03-02T04:27:32.000Z,1.0856
2024-03-02T04:28:32.000Z,3.54
2024-03-02T04:29:32.000Z,2.5959999999999996
2024-03-02T04:30:33.000Z,0.0
2024-03-02T04:31:33.000Z,3.6816
2024-03-02T04:32:34.000Z,2.5959999999999996
2024-03-02T04:33:34.000Z,2.5488
2024-03-02T04:34:35.000Z,3.0208
2024-03-02T04:35:35.000Z,2.5488
2024-03-02T04:36:35.000Z,2.5015999999999994
2024-03-02T04:37:36.000Z,2.7375999999999996
2024-03-02T04:38:36.000Z,2.7847999999999997
2024-03-02T04:39:36.000Z,3.0208
2024-03-02T04:40:37.000Z,4.247999999999999
2024-03-02T04:41:37.000Z,3.3040000000000003
2024-03-02T04:42:37.000Z,4.2951999999999995
2024-03-02T04:43:38.000Z,4.0592
2024-03-02T04:44:38.000Z,2.5959999999999996
2024-03-02T04:45:38.000Z,3.0679999999999996
2024-03-02T04:46:38.000Z,3.54
2024-03-02T04:47:39.000Z,3.3511999999999995
2024-03-02T04:48:39.000Z,3.2095999999999996
2024-03-02T04:49:39.000Z,2.4072
2024-03-02T04:50:40.000Z,3.0679999999999996
2024-03-02T04:51:40.000Z,3.3040000000000003
2024-03-02T04:52:40.000Z,2.0767999999999995
2024-03-02T04:53:41.000Z,2.6431999999999998
2024-03-02T04:54:41.000Z,3.9647999999999994
2024-03-02T04:55:41.000Z,3.1152
2024-03-02T04:56:42.000Z,3.54
2024-03-02T04:57:42.000Z,3.3983999999999996
2024-03-02T04:58:42.000Z,3.3983999999999996
2024-03-02T04:59:42.000Z,2.1239999999999997
2024-03-02T05:00:43.000Z,2.1712
2024-03-02T05:01:43.000Z,2.5959999999999996
2024-03-02T05:02:43.000Z,2.1712
2024-03-02T05:03:44.000Z,1.0856
2024-03-02T05:04:44.000Z,1.5104
2024-03-02T05:05:44.000Z,2.5959999999999996
2024-03-02T05:06:44.000Z,0.7552
2024-03-02T05:07:45.000Z,0.33039999999999997
2024-03-02T05:08:45.000Z,0.0472
2024-03-02T05:09:45.000Z,1.0383999999999998
2024-03-02T05:10:46.000Z,2.3127999999999997
2024-03-02T05:11:46.000Z,1.6520000000000001
2024-03-02T05:12:46.000Z,0.708
2024-03-02T05:13:47.000Z,4.1064
2024-03-02T05:14:47.000Z,2.832
2024-03-02T05:15:47.000Z,3.1624
2024-03-02T05:16:47.000Z,2.4072
2024-03-02T05:17:48.000Z,2.6431999999999998
2024-03-02T05:18:48.000Z,3.0679999999999996
2024-03-02T05:19:48.000Z,2.5959999999999996
2024-03-02T05:20:49.000Z,3.6816
2024-03-02T05:21:49.000Z,4.4368
2024-03-02T05:22:49.000Z,4.2008
2024-03-02T05:23:50.000Z,3.5871999999999993
2024-03-02T05:24:50.000Z,5.003199999999999
2024-03-02T05:25:50.000Z,4.3424
2024-03-02T05:26:51.000Z,4.7672
2024-03-02T05:27:51.000Z,4.531199999999999
2024-03-02T05:28:51.000Z,3.1152
2024-03-02T05:29:52.000Z,3.1152
2024-03-02T05:30:52.000Z,3.3511999999999995
2024-03-02T05:31:52.000Z,2.6903999999999995
2024-03-02T05:32:53.000Z,3.2567999999999997
2024-03-02T05:33:53.000Z,2.7375999999999996
2024-03-02T05:34:53.000Z,1.9351999999999998
2024-03-02T05:35:53.000Z,2.7847999999999997
2024-03-02T05:36:54.000Z,2.3127999999999997
2024-03-02T05:37:54.000Z,2.5959999999999996
2024-03-02T05:38:55.000Z,3.6344
2024-03-02T05:39:55.000Z,2.6903999999999995
2024-03-02T05:40:55.000Z,1.5576
2024-03-02T05:41:55.000Z,2.6431999999999998
2024-03-02T05:42:56.000Z,3.9647999999999994
2024-03-02T05:43:56.000Z,2.9263999999999997
2024-03-02T05:44:57.000Z,1.8879999999999997
2024-03-02T05:45:57.000Z,2.2655999999999996
2024-03-02T05:46:57.000Z,1.9823999999999997
2024-03-02T05:47:57.000Z,2.2184
2024-03-02T05:48:58.000Z,2.3127999999999997
2024-03-02T05:49:58.000Z,2.36
2024-03-02T05:50:58.000Z,2.3127999999999997
2024-03-02T05:51:59.000Z,3.2567999999999997
2024-03-02T05:52:59.000Z,2.4544
2024-03-02T05:53:59.000Z,2.5015999999999994
2024-03-02T05:55:00.000Z,2.7375999999999996
2024-03-02T05:56:00.000Z,2.5488
2024-03-02T05:57:00.000Z,2.8792
2024-03-02T05:58:01.000Z,2.1712
2024-03-02T05:59:01.000Z,2.1712
2024-03-02T06:00:01.000Z,2.6903999999999995
2024-03-02T06:01:02.000Z,3.1624
2024-03-02T06:02:02.000Z,3.7287999999999992
2024-03-02T06:03:02.000Z,4.0592
2024-03-02T06:04:02.000Z,3.54
2024-03-02T06:05:03.000Z,3.3511999999999995
2024-03-02T06:06:03.000Z,3.9647999999999994
2024-03-02T06:07:03.000Z,4.1064
2024-03-02T06:08:04.000Z,2.6431999999999998
2024-03-02T06:09:04.000Z,2.6431999999999998
2024-03-02T06:10:04.000Z,3.1624
2024-03-02T06:11:05.000Z,3.5871999999999993
2024-03-02T06:12:05.000Z,3.7287999999999992
2024-03-02T06:13:05.000Z,3.3511999999999995
2024-03-02T06:14:06.000Z,4.012
2024-03-02T06:15:06.000Z,2.3127999999999997
2024-03-02T06:16:06.000Z,2.8792
2024-03-02T06:17:06.000Z,4.6728
2024-03-02T06:18:07.000Z,3.0679999999999996
2024-03-02T06:19:07.000Z,4.4368
2024-03-02T06:20:07.000Z,3.3511999999999995
2024-03-02T06:21:08.000Z,4.578399999999999
2024-03-02T06:22:08.000Z,3.0679999999999996
2024-03-02T06:23:08.000Z,3.8703999999999996
2024-03-02T06:24:09.000Z,3.7759999999999994
2024-03-02T06:25:09.000Z,4.7672
2024-03-02T06:26:09.000Z,4.7672
2024-03-02T06:27:10.000Z,2.8792
2024-03-02T06:28:10.000Z,3.8232
2024-03-02T06:29:10.000Z,3.5871999999999993
2024-03-02T06:30:10.000Z,3.8703999999999996
2024-03-02T06:31:11.000Z,3.9175999999999997
2024-03-02T06:32:11.000Z,4.2951999999999995
2024-03-02T06:33:12.000Z,4.012
2024-03-02T06:34:12.000Z,3.8232
2024-03-02T06:35:13.000Z,4.484
2024-03-02T06:36:13.000Z,4.3896
2024-03-02T06:37:13.000Z,4.3424
2024-03-02T06:38:14.000Z,4.153599999999999
2024-03-02T06:39:14.000Z,3.0679999999999996
2024-03-02T06:40:14.000Z,4.484
2024-03-02T06:41:15.000Z,4.4368
2024-03-02T06:42:15.000Z,4.2008
2024-03-02T06:43:15.000Z,4.2008
2024-03-02T06:44:16.000Z,4.484
2024-03-02T06:45:16.000Z,4.4368
2024-03-02T06:46:16.000Z,0.0
2024-03-02T06:47:17.000Z,3.7759999999999994
2024-03-02T06:48:17.000Z,3.9175999999999997
2024-03-02T06:49:17.000Z,4.9559999999999995
2024-03-02T06:50:18.000Z,4.3424
2024-03-02T06:51:18.000Z,4.531199999999999
2024-03-02T06:52:18.000Z,2.9736
2024-03-02T06:53:18.000Z,4.012
2024-03-02T06:54:19.000Z,4.012
2024-03-02T06:55:19.000Z,3.54
2024-03-02T06:56:19.000Z,4.2008
2024-03-02T06:57:20.000Z,4.3896
2024-03-02T06:58:20.000Z,4.9559999999999995
2024-03-02T06:59:20.000Z,4.1064
2024-03-02T07:00:21.000Z,4.484
2024-03-02T07:01:21.000Z,0.0
2024-03-02T07:02:21.000Z,3.7287999999999992
2024-03-02T07:03:22.000Z,4.6728
2024-03-02T07:04:22.000Z,3.3040000000000003
2024-03-02T07:05:22.000Z,4.3896
2024-03-02T07:06:23.000Z,4.012
2024-03-02T07:07:23.000Z,4.7672
2024-03-02T07:08:23.000Z,4.012
2024-03-02T07:09:23.000Z,3.54
2024-03-02T07:10:24.000Z,5.144799999999999
2024-03-02T07:11:24.000Z,3.54
2024-03-02T07:12:24.000Z,4.3896
2024-03-02T07:13:25.000Z,5.2863999999999995
2024-03-02T07:14:25.000Z,3.1624
2024-03-02T07:15:25.000Z,3.1624
2024-03-02T07:16:25.000Z,4.6255999999999995
2024-03-02T07:17:26.000Z,5.003199999999999
2024-03-02T07:18:26.000Z,5.333599999999999
2024-03-02T07:19:26.000Z,4.3424
2024-03-02T07:20:27.000Z,3.6816
2024-03-02T07:21:27.000Z,3.3040000000000003
2024-03-02T07:22:27.000Z,3.8703999999999996
2024-03-02T07:23:27.000Z,5.2392
2024-03-02T07:24:28.000Z,4.9559999999999995
2024-03-02T07:25:28.000Z,4.3424
2024-03-02T07:26:28.000Z,3.6344
2024-03-02T07:27:29.000Z,4.861599999999999
2024-03-02T07:28:29.000Z,3.54
2024-03-02T07:29:29.000Z,3.6344
2024-03-02T07:30:30.000Z,4.0592
2024-03-02T07:31:30.000Z,5.6168
2024-03-02T07:32:30.000Z,5.191999999999999
2024-03-02T07:33:30.000Z,4.9088
2024-03-02T07:34:31.000Z,4.012
2024-03-02T07:35:31.000Z,3.3983999999999996
2024-03-02T07:36:31.000Z,5.003199999999999
2024-03-02T07:37:32.000Z,5.380799999999999
2024-03-02T07:38:32.000Z,4.531199999999999
2024-03-02T07:39:32.000Z,5.7584
2024-03-02T07:40:33.000Z,5.191999999999999
2024-03-02T07:41:33.000Z,3.9175999999999997
2024-03-02T07:42:33.000Z,5.0504
2024-03-02T07:43:34.000Z,3.7287999999999992
2024-03-02T07:44:34.000Z,3.5871999999999993
2024-03-02T07:45:34.000Z,3.3040000000000003
2024-03-02T07:46:35.000Z,3.3040000000000003
2024-03-02T07:47:35.000Z,4.8144
2024-03-02T07:48:36.000Z,4.3896
2024-03-02T07:49:36.000Z,4.578399999999999
2024-03-02T07:50:36.000Z,3.8703999999999996
2024-03-02T07:51:36.000Z,3.8232
2024-03-02T07:52:37.000Z,3.1152
2024-03-02T07:53:37.000Z,4.012
2024-03-02T07:54:37.000Z,3.9175999999999997
2024-03-02T07:55:38.000Z,3.6816
2024-03-02T07:56:38.000Z,2.9736
2024-03-02T07:57:38.000Z,2.5488
2024-03-02T07:58:38.000Z,3.6344
2024-03-02T07:59:39.000Z,3.6344
2024-03-02T08:00:39.000Z,4.012
2024-03-02T08:01:39.000Z,3.8232
2024-03-02T08:02:40.000Z,3.0208
2024-03-02T08:03:40.000Z,2.7375999999999996
2024-03-02T08:04:40.000Z,2.7375999999999996
2024-03-02T08:05:40.000Z,3.4455999999999993
2024-03-02T08:06:41.000Z,4.247999999999999
2024-03-02T08:07:41.000Z,5.569599999999999
2024-03-02T08:08:41.000Z,6.1831999999999985
2024-03-02T08:09:42.000Z,4.247999999999999
2024-03-02T08:10:42.000Z,4.4368
2024-03-02T08:11:42.000Z,3.2567999999999997
2024-03-02T08:12:43.000Z,5.2392
2024-03-02T08:13:43.000Z,4.8144
2024-03-02T08:14:43.000Z,4.9088
2024-03-02T08:15:44.000Z,3.8232
2024-03-02T08:16:44.000Z,5.7584
2024-03-02T08:17:44.000Z,5.7584
2024-03-02T08:18:45.000Z,4.6728
2024-03-02T08:19:45.000Z,5.2392
2024-03-02T08:20:45.000Z,5.475199999999999
2024-03-02T08:21:46.000Z,4.9088
2024-03-02T08:22:46.000Z,4.484
2024-03-02T08:23:46.000Z,4.9088
2024-03-02T08:24:46.000Z,4.7672
2024-03-02T08:25:47.000Z,5.380799999999999
2024-03-02T08:26:47.000Z,4.2951999999999995
2024-03-02T08:27:47.000Z,3.2095999999999996
2024-03-02T08:28:48.000Z,3.3983999999999996
2024-03-02T08:29:48.000Z,3.1152
2024-03-02T08:30:48.000Z,2.7375999999999996
2024-03-02T08:31:49.000Z,4.6255999999999995
2024-03-02T08:32:49.000Z,4.3424
2024-03-02T08:33:49.000Z,3.7287999999999992
2024-03-02T08:34:50.000Z,4.3424
2024-03-02T08:35:50.000Z,3.4928
2024-03-02T08:36:50.000Z,3.0679999999999996
2024-03-02T08:37:51.000Z,3.7759999999999994
2024-03-02T08:38:51.000Z,3.3040000000000003
2024-03-02T08:39:51.000Z,4.2951999999999995
2024-03-02T08:40:52.000Z,3.3983999999999996
2024-03-02T08:41:52.000Z,4.72
2024-03-02T08:42:52.000Z,5.569599999999999
2024-03-02T08:43:52.000Z,5.9472
2024-03-02T08:44:53.000Z,6.749599999999999
2024-03-02T08:45:53.000Z,5.380799999999999
2024-03-02T08:46:53.000Z,5.475199999999999
2024-03-02T08:47:54.000Z,5.522399999999999
2024-03-02T08:48:54.000Z,4.9559999999999995
2024-03-02T08:49:54.000Z,5.2863999999999995
2024-03-02T08:50:54.000Z,5.7112
2024-03-02T08:51:55.000Z,5.003199999999999
2024-03-02T08:52:55.000Z,5.2863999999999995
2024-03-02T08:53:55.000Z,5.7584
2024-03-02T08:54:56.000Z,6.088799999999999
2024-03-02T08:55:56.000Z,3.3040000000000003
2024-03-02T08:56:56.000Z,3.9175999999999997
2024-03-02T08:57:57.000Z,5.191999999999999
2024-03-02T08:58:57.000Z,5.003199999999999
2024-03-02T08:59:57.000Z,3.3983999999999996
2024-03-02T09:00:58.000Z,4.012
2024-03-02T09:01:58.000Z,2.7847999999999997
2024-03-02T09:02:58.000Z,4.531199999999999
2024-03-02T09:03:59.000Z,4.4368
2024-03-02T09:04:59.000Z,5.2863999999999995
2024-03-02T09:05:59.000Z,4.6255999999999995
2024-03-02T09:06:59.000Z,3.3983999999999996
2024-03-02T09:08:00.000Z,3.0679999999999996
2024-03-02T09:09:00.000Z,5.0504
2024-03-02T09:10:00.000Z,3.7287999999999992
2024-03-02T09:11:01.000Z,4.3896
2024-03-02T09:12:01.000Z,3.7287999999999992
2024-03-02T09:13:01.000Z,4.6728
2024-03-02T09:14:02.000Z,2.5488
2024-03-02T09:15:02.000Z,1.416
2024-03-02T09:16:02.000Z,2.9263999999999997
2024-03-02T09:17:02.000Z,2.6903999999999995
2024-03-02T09:18:03.000Z,2.8792
2024-03-02T09:19:03.000Z,2.0767999999999995
2024-03-02T09:20:03.000Z,3.7287999999999992
2024-03-02T09:21:04.000Z,3.6816
2024-03-02T09:22:04.000Z,2.832
2024-03-02T09:23:04.000Z,2.2184
2024-03-02T09:24:05.000Z,2.6903999999999995
2024-03-02T09:25:05.000Z,4.9088
2024-03-02T09:26:05.000Z,5.6168
2024-03-02T09:27:06.000Z,5.2392
2024-03-02T09:28:06.000Z,3.9647999999999994
2024-03-02T09:29:06.000Z,3.7759999999999994
2024-03-02T09:30:07.000Z,3.3040000000000003
2024-03-02T09:31:07.000Z,3.4928
2024-03-02T09:32:07.000Z,5.7112
2024-03-02T09:33:08.000Z,6.749599999999999
2024-03-02T09:34:08.000Z,9.5344
2024-03-02T09:35:08.000Z,8.732
2024-03-02T09:36:09.000Z,10.336799999999998
2024-03-02T09:37:09.000Z,7.3632
2024-03-02T09:38:09.000Z,5.427999999999999
2024-03-02T09:39:10.000Z,3.5871999999999993
2024-03-02T09:40:10.000Z,5.2392
2024-03-02T09:41:10.000Z,4.2008
2024-03-02T09:42:10.000Z,0.0
2024-03-02T09:43:11.000Z,2.7847999999999997
2024-03-02T09:44:11.000Z,2.9736
2024-03-02T09:45:11.000Z,5.569599999999999
2024-03-02T09:46:12.000Z,7.551999999999999
2024-03-02T09:47:12.000Z,6.702399999999999
2024-03-02T09:48:12.000Z,4.531199999999999
2024-03-02T09:49:13.000Z,4.484
2024-03-02T09:50:13.000Z,5.003199999999999
2024-03-02T09:51:13.000Z,5.7584
2024-03-02T09:52:14.000Z,4.531199999999999
2024-03-02T09:53:14.000Z,4.861599999999999
2024-03-02T09:54:14.000Z,4.578399999999999
2024-03-02T09:55:14.000Z,3.6816
2024-03-02T09:56:15.000Z,4.531199999999999
2024-03-02T09:57:15.000Z,3.8232
2024-03-02T09:58:15.000Z,5.664
2024-03-02T09:59:16.000Z,3.54
2024-03-02T10:00:16.000Z,5.475199999999999
2024-03-02T10:01:16.000Z,4.3896
2024-03-02T10:02:16.000Z,4.578399999999999
2024-03-02T10:03:17.000Z,5.475199999999999
2024-03-02T10:04:17.000Z,5.2392
2024-03-02T10:05:17.000Z,6.0416
2024-03-02T10:06:18.000Z,6.702399999999999
2024-03-02T10:07:18.000Z,6.1831999999999985
2024-03-02T10:08:18.000Z,5.6168
2024-03-02T10:09:18.000Z,6.135999999999999
2024-03-02T10:10:19.000Z,6.9856
2024-03-02T10:11:19.000Z,6.088799999999999
2024-03-02T10:12:19.000Z,4.531199999999999
2024-03-02T10:13:19.000Z,4.012
2024-03-02T10:14:20.000Z,4.9088
2024-03-02T10:15:20.000Z,4.1064
2024-03-02T10:16:20.000Z,4.0592
2024-03-02T10:17:21.000Z,3.54
2024-03-02T10:18:21.000Z,5.003199999999999
2024-03-02T10:19:21.000Z,5.664
2024-03-02T10:20:22.000Z,5.522399999999999
2024-03-02T10:21:22.000Z,3.3511999999999995
2024-03-02T10:22:22.000Z,4.3424
2024-03-02T10:23:22.000Z,5.8999999999999995
2024-03-02T10:24:23.000Z,2.5488
2024-03-02T10:25:23.000Z,2.5959999999999996
2024-03-02T10:26:23.000Z,3.8232
2024-03-02T10:27:24.000Z,6.796799999999999
2024-03-02T10:28:24.000Z,8.1184
2024-03-02T10:29:24.000Z,6.419199999999999
2024-03-02T10:30:25.000Z,4.6255999999999995
2024-03-02T10:31:25.000Z,4.6255999999999995
2024-03-02T10:32:25.000Z,3.54
2024-03-02T10:33:26.000Z,5.144799999999999
2024-03-02T10:34:26.000Z,5.852799999999999